Home > Products > Valid Products > TAF

000
FTUS41 KGYX 241458 AAA
TAFCON
TAF AMD
KCON 241458Z 2415/2512 16010G20KT 2SM -RA BR OVC007 WS020/17060KT
     FM241800 18009KT 3SM BR OVC003=



000
FTUS41 KGYX 241457 AAA
TAFPWM
TAF AMD
KPWM 241457Z 2415/2512 16017G30KT 2SM RA BR OVC007 WS020/17060KT
     FM241700 17012G18KT 4SM -DZ BR OVC003
     FM241900 19009KT 4SM BR OVC003=



000
FTUS41 KGYX 241457 AAA
TAFAUG
TAF AMD
KAUG 241457Z 2415/2512 17013G26KT 1SM RA BR OVC003 WS020/17060KT
     FM241800 16010G18KT 4SM -DZ BR OVC003
     FM242000 19009KT 4SM BR OVC003=



000
FTUS41 KGYX 241456 AAA
TAFPSM
TAF AMD
KPSM 241456Z 2415/2512 16020G30KT 3SM -RA BR OVC004
     FM241800 18009KT 3SM BR OVC003=



000
FTUS41 KGYX 241454 AAB
TAFLEB
TAF AMD
KLEB 241454Z 2415/2512 19005KT 5SM -RA BR OVC015 WS020/17060KT
     FM241500 20012G22KT P6SM OVC025=



000
FTUS41 KGYX 241220 AAA
TAFLEB
TAF AMD
KLEB 241220Z 2412/2512 19005KT 5SM -RA BR FEW015 OVC035
      WS020/17060KT
     FM241330 20012G22KT P6SM OVC035=



000
FTUS41 KGYX 241124
TAFAUG
TAF
KAUG 241124Z 2412/2512 16008KT 3SM -RA BR OVC003
     FM241400 14010KT 1SM RA BR OVC003 WS020/17060KT
     FM241800 16010G18KT 4SM -DZ BR OVC003
     FM242000 19009KT 4SM BR OVC003=



000
FTUS41 KGYX 241124
TAFCON
TAF
KCON 241124Z 2412/2512 00000KT 2SM RA BR OVC007 WS020/17060KT
     FM241600 15010G16KT 4SM -DZ BR OVC003
     FM241800 18009KT 3SM BR OVC003=



000
FTUS41 KGYX 241124
TAFPSM
TAF
KPSM 241124Z 2412/2512 13013KT 5SM -RA BR OVC004 WS020/17060KT
     FM241400 14012G20KT 2SM RA BR OVC003
     FM241600 16012G20KT 4SM -DZ BR OVC003
     FM241800 18009KT 3SM BR OVC003=



000
FTUS41 KGYX 241124
TAFPWM
TAF
KPWM 241124Z 2412/2512 13005KT 6SM -RA OVC008
     FM241300 14010KT 2SM RA BR OVC003 WS020/17060KT
     FM241700 17012G18KT 4SM -DZ BR OVC003
     FM241900 19009KT 4SM BR OVC003=



000
FTUS41 KGYX 241124
TAFLEB
TAF
KLEB 241124Z 2412/2512 15007G15KT 1SM -RA BR BKN015 OVC021
      WS020/17060KT
     FM241600 17008KT 4SM -DZ BR OVC003
     FM241800 20008KT 4SM BR OVC003=



000
FTUS41 KGYX 241010 AAB
TAFLEB
TAF AMD
KLEB 241010Z 2410/2506 00000KT 3SM -RA BR OVC025
     FM241100 12006KT 2SM RA BR OVC004 WS020/17060KT
     FM241600 17008KT 4SM -DZ BR OVC003
     FM241800 20008KT 4SM BR OVC003=



000
FTUS41 KGYX 241009 AAB
TAFCON
TAF AMD
KCON 241009Z 2410/2506 13003KT 4SM -RA OVC009
     FM241200 11008KT 3SM RA BR OVC003 WS020/17060KT
     FM241600 15010G16KT 4SM -DZ BR OVC003
     FM241800 18009KT 3SM BR OVC003=



000
FTUS41 KGYX 241009 AAB
TAFCON
TAF AMD
KCON 241009Z 2410/2506 13003KT 4SM -RA OVC009
     FM241200 11008KT 3SM RA BR OVC003 WS020/17060KT
     FM241600 15010G16KT 4SM -DZ BR OVC003
     FM241800 18009KT 3SM BR OVC003=



000
FTUS41 KGYX 241007 AAB
TAFPSM
TAF AMD
KPSM 241007Z 2410/2506 12005KT 6SM -RA BR OVC004
     FM241200 11008KT 4SM RA BR OVC003 WS020/17060KT
     FM241400 14012G20KT 2SM RA BR OVC003
     FM241600 16012G20KT 4SM -DZ BR OVC003
     FM241800 18009KT 3SM BR OVC003=



000
FTUS41 KGYX 241007 AAB
TAFPSM
TAF AMD
KPSM 241007Z 2410/2506 12005KT 6SM -RA BR OVC004
     FM241200 11008KT 4SM RA BR OVC003 WS020/17060KT
     FM241400 14012G20KT 2SM RA BR OVC003
     FM241600 16012G20KT 4SM -DZ BR OVC003
     FM241800 18009KT 3SM BR OVC003=



000
FTUS41 KGYX 240847 AAA
TAFPSM
TAF AMD
KPSM 240847Z 2409/2506 14005KT P6SM BKN050 OVC250
     FM241000 12005KT 6SM -RA BR OVC025
     FM241200 11008KT 4SM RA BR SCT003 OVC007 WS020/17060KT
     FM241400 14012G20KT 2SM RA BR OVC003
     FM241600 16012G20KT 4SM -DZ BR OVC003
     FM241800 18009KT 3SM BR OVC003=



000
FTUS41 KGYX 240847 AAA
TAFLEB
TAF AMD
KLEB 240847Z 2409/2506 00000KT P6SM SCT026 OVC035
     FM241100 12006KT 2SM RA BR OVC004 WS020/17060KT
     FM241600 17008KT 4SM -DZ BR OVC003
     FM241800 20008KT 4SM BR OVC003=



000
FTUS41 KGYX 240847 AAB
TAFAUG
TAF AMD
KAUG 240847Z 2409/2506 15007KT 1/4SM FG VV002
     FM241200 13005KT 1SM -RA BR OVC003
     FM241400 14010KT 1SM RA BR OVC003 WS020/17060KT
     FM241800 16010G18KT 4SM -DZ BR OVC003
     FM242000 19009KT 4SM BR OVC003=



000
FTUS41 KGYX 240847 AAA
TAFPWM
TAF AMD
KPWM 240847Z 2409/2506 00000KT 4SM BR SKC
     FM241100 13004KT 4SM -RA BR SCT007 OVC015
     FM241300 14010KT 2SM RA BR OVC003 WS020/17060KT
     FM241700 17012G18KT 4SM -DZ BR OVC003
     FM241900 19009KT 4SM BR OVC003=



000
FTUS41 KGYX 240847 AAA
TAFCON
TAF AMD
KCON 240847Z 2409/2506 00000KT P6SM OVC045
     FM241000 13005KT 6SM -RA OVC015
     FM241200 11008KT 3SM RA BR OVC003 WS020/17060KT
     FM241600 15010G16KT 4SM -DZ BR OVC003
     FM241800 18009KT 3SM BR OVC003=



000
FTUS41 KGYX 240721 AAA
TAFAUG
TAF AMD
KAUG 240721Z 2407/2506 VRB03KT 3SM BR FEW050 OVC100
     FM241200 13005KT 3SM -RA BR SCT007 OVC015
     FM241400 14010KT 2SM RA BR OVC003 WS020/17060KT
     FM241800 16010G18KT 4SM -DZ BR OVC003
     FM242000 19009KT 4SM BR OVC003=



000
FTUS41 KGYX 240520
TAFLEB
TAF
KLEB 240520Z 2406/2506 00000KT 6SM BR BKN100
     FM240900 00000KT 4SM -RA BR OVC015
     FM241100 12006KT 2SM RA BR OVC004 WS020/17060KT
     FM241600 17008KT 4SM -DZ BR OVC003
     FM241800 20008KT 4SM BR OVC003=



000
FTUS41 KGYX 240520
TAFAUG
TAF
KAUG 240520Z 2406/2506 VRB03KT 6SM BR BKN060
     FM241200 13005KT 4SM -RA BR SCT007 OVC015
     FM241400 14010KT 2SM RA BR OVC003 WS020/17060KT
     FM241800 16010G18KT 4SM -DZ BR OVC003
     FM242000 19009KT 4SM BR OVC003=



000
FTUS41 KGYX 240520
TAFPSM
TAF
KPSM 240520Z 2406/2506 15003KT P6SM SCT100
     FM241000 12005KT 6SM -RA BR OVC025
     FM241200 11008KT 4SM RA BR SCT003 OVC007 WS020/17060KT
     FM241400 14012G20KT 2SM RA BR OVC003
     FM241600 16012G20KT 4SM -DZ BR OVC003
     FM241800 18009KT 3SM BR OVC003=



000
FTUS41 KGYX 240520
TAFCON
TAF
KCON 240520Z 2406/2506 00000KT P6SM BKN100
     FM241000 13005KT 6SM -RA OVC015
     FM241200 11008KT 3SM RA BR OVC003 WS020/17060KT
     FM241600 15010G16KT 4SM -DZ BR OVC003
     FM241800 18009KT 3SM BR OVC003=



000
FTUS41 KGYX 240520
TAFPWM
TAF
KPWM 240520Z 2406/2506 VRB04KT P6SM BKN060 OVC090
     FM241100 13004KT 4SM -RA BR SCT007 OVC015
     FM241300 14010KT 2SM RA BR OVC003 WS020/17060KT
     FM241700 17012G18KT 4SM -DZ BR OVC003
     FM241900 19009KT 4SM BR OVC003=



000
FTUS41 KGYX 232323
TAFAUG
TAF
KAUG 232323Z 2400/2424 VRB03KT P6SM BKN050
     FM241000 13005KT 6SM -RA OVC015
     FM241300 13010KT 2SM RA BR OVC003 WS020/17060KT
     FM241900 17010G18KT 4SM -DZ BR OVC003=



000
FTUS41 KGYX 232323
TAFLEB
TAF
KLEB 232323Z 2400/2424 VRB03KT P6SM BKN050
     FM240800 15005KT 6SM -RA OVC015
     FM241000 13010KT 1SM RA BR OVC003 WS020/17060KT
     FM241800 19008KT 4SM -DZ BR OVC003=



000
FTUS41 KGYX 232323
TAFPSM
TAF
KPSM 232323Z 2400/2424 VRB03KT P6SM BKN050
     FM240900 13005KT 6SM -RA OVC015
     FM241200 13010KT 2SM RA BR OVC003 WS020/17060KT
     FM241600 16012G20KT 4SM -DZ BR OVC003=



000
FTUS41 KGYX 232323
TAFPWM
TAF
KPWM 232323Z 2400/2424 VRB03KT P6SM BKN050
     FM240900 13005KT 6SM -RA OVC015
     FM241300 13010KT 2SM RA BR OVC003 WS020/17060KT
     FM241800 15012G20KT 4SM -DZ BR OVC003=



000
FTUS41 KGYX 232323
TAFCON
TAF
KCON 232323Z 2400/2424 VRB03KT P6SM BKN050
     FM240800 13005KT 6SM -RA OVC015
     FM241100 13008KT 2SM RA BR OVC003 WS020/17060KT
     FM241600 15012KT 4SM -DZ BR OVC003=



000
FTUS41 KGYX 232028 AAA
TAFLEB
TAF AMD
KLEB 232028Z 2320/2418 20004KT P6SM SCT035 BKN080
     FM240800 VRB03KT 5SM -SHRA BR OVC015
     FM241100 17006KT 3SM -RA BR OVC005=



000
FTUS41 KGYX 231721
TAFLEB
TAF
KLEB 231721Z 2318/2418 20007KT P6SM BKN025
     FM232200 VRB03KT P6SM OVC080
     FM240800 VRB03KT 5SM -SHRA BR OVC015
     FM241100 17006KT 3SM -RA BR OVC005=



000
FTUS41 KGYX 231721
TAFAUG
TAF
KAUG 231721Z 2318/2418 23007KT P6SM BKN070
     FM232200 19004KT P6SM BKN200
     FM240800 15006KT P6SM -SHRA OVC025
     FM241300 14009KT 3SM -RA BR OVC006=



000
FTUS41 KGYX 231721
TAFPSM
TAF
KPSM 231721Z 2318/2418 25008KT P6SM SCT050
     FM232200 19004KT P6SM BKN200
     FM240700 12006KT P6SM -SHRA OVC025
     FM241100 12010KT 3SM -RA BR OVC008=



000
FTUS41 KGYX 231721
TAFCON
TAF
KCON 231721Z 2318/2418 22008KT P6SM SCT035
     FM232200 VRB03KT P6SM BKN100
     FM240800 VRB03KT 5SM -SHRA BR OVC020
     FM241100 12005KT 3SM -RA BR OVC006=



000
FTUS41 KGYX 231721
TAFPWM
TAF
KPWM 231721Z 2318/2418 22007KT P6SM SCT080
     FM232200 19004KT P6SM BKN200
     FM240800 15006KT P6SM -SHRA OVC025
     FM241300 15009G17KT 3SM -RA BR OVC008=



000
FTUS41 KGYX 231218 AAA
TAFPWM
TAF AMD
KPWM 231218Z 2312/2412 22009KT P6SM SCT035 OVC100 WS020/27040KT
     FM231400 23008KT P6SM SCT035 BKN080
     FM241100 17004KT P6SM -SHRA OVC035=



000
FTUS41 KGYX 231121
TAFCON
TAF
KCON 231121Z 2312/2412 23006KT P6SM BKN035 WS020/25035KT
     FM231400 24008KT P6SM SCT035 BKN080
     FM241000 14004KT P6SM -SHRA OVC035=



000
FTUS41 KGYX 231121
TAFPSM
TAF
KPSM 231121Z 2312/2412 22008KT P6SM BKN035 OVC100 WS020/26045KT
     FM231400 24008KT P6SM SCT035 BKN080
     FM241000 14004KT P6SM -SHRA OVC035=



000
FTUS41 KGYX 231121
TAFAUG
TAF
KAUG 231121Z 2312/2412 21007KT P6SM BKN035
     FM232200 23008KT P6SM SCT035 BKN080=



000
FTUS41 KGYX 231121
TAFPWM
TAF
KPWM 231121Z 2312/2412 23010G17KT P6SM SCT035 OVC100 WS020/27040KT
     FM231400 23008KT P6SM SCT035 BKN080
     FM241100 17004KT P6SM -SHRA OVC035=



000
FTUS41 KGYX 231121
TAFLEB
TAF
KLEB 231121Z 2312/2412 17007KT P6SM OVC025
     FM231500 19006KT P6SM OVC050=



000
FTUS41 KGYX 230919 AAA
TAFPWM
TAF AMD
KPWM 230919Z 2309/2406 23010G17KT P6SM SCT035 OVC100 WS020/27040KT
     FM231400 23008KT P6SM SCT035 BKN080=



000
FTUS41 KGYX 230919 AAA
TAFAUG
TAF AMD
KAUG 230919Z 2309/2406 21007KT P6SM BKN035
     FM232200 23008KT P6SM SCT035 BKN080=



000
FTUS41 KGYX 230919 AAA
TAFCON
TAF AMD
KCON 230919Z 2309/2406 23006KT P6SM BKN035 WS020/25035KT
     FM231400 24008KT P6SM SCT035 BKN080=



000
FTUS41 KGYX 230919 AAA
TAFLEB
TAF AMD
KLEB 230919Z 2309/2406 17007KT P6SM OVC025
     FM231500 19006KT P6SM OVC050=



000
FTUS41 KGYX 230919 AAA
TAFPSM
TAF AMD
KPSM 230919Z 2309/2406 21012KT P6SM BKN035 OVC100 WS020/26045KT
     FM231400 24008KT P6SM SCT035 BKN080=



000
FTUS41 KGYX 230525
TAFPWM
TAF
KPWM 230525Z 2306/2406 23010G17KT P6SM SCT035 OVC100 WS020/27040KT
     FM231400 23008KT P6SM SCT035 BKN080=



000
FTUS41 KGYX 230525
TAFLEB
TAF
KLEB 230525Z 2306/2406 21005KT P6SM OVC035 WS020/26045KT
     FM230800 20004KT P6SM OVC025
     FM231500 19006KT P6SM OVC050=



000
FTUS41 KGYX 230525
TAFPSM
TAF
KPSM 230525Z 2306/2406 21012KT P6SM BKN035 OVC100 WS020/26045KT
     FM231400 24008KT P6SM SCT035 BKN080=



000
FTUS41 KGYX 230525
TAFAUG
TAF
KAUG 230525Z 2306/2406 21007KT P6SM BKN035
     FM232200 23008KT P6SM SCT035 BKN080=



000
FTUS41 KGYX 230525
TAFCON
TAF
KCON 230525Z 2306/2406 23006KT P6SM BKN035 WS020/25035KT
     FM231400 24008KT P6SM SCT035 BKN080=



000
FTUS41 KGYX 230258 AAA
TAFPWM
TAF AMD
KPWM 230258Z 2303/2324 23010G17KT P6SM SCT050 OVC100 WS020/27040KT
     FM231300 26008KT P6SM SCT050 OVC070=



000
FTUS41 KGYX 230222 AAA
TAFPSM
TAF AMD
KPSM 230222Z 2302/2324 22012KT P6SM SCT050 OVC100 WS020/26045KT
     FM231400 25008KT P6SM BKN050=



000
FTUS41 KGYX 222320
TAFPSM
TAF
KPSM 222320Z 2300/2324 22008KT P6SM SCT050 OVC100 WS020/26045KT
     FM231400 25008KT P6SM BKN050=



000
FTUS41 KGYX 222320
TAFLEB
TAF
KLEB 222320Z 2300/2324 21005KT P6SM OVC040 WS020/26045KT
     FM230800 20004KT 6SM BR OVC025
     FM231500 19006KT P6SM OVC050=



000
FTUS41 KGYX 222320
TAFPWM
TAF
KPWM 222320Z 2300/2324 23007KT P6SM SCT050 OVC100 WS020/27040KT
     FM231300 26008KT P6SM SCT050 OVC070=



000
FTUS41 KGYX 222320
TAFCON
TAF
KCON 222320Z 2300/2324 23006KT P6SM BKN040=



000
FTUS41 KGYX 222320
TAFAUG
TAF
KAUG 222320Z 2300/2324 21007KT P6SM SCT050 BKN070=



000
FTUS41 KGYX 221732
TAFLEB
TAF
KLEB 221732Z 2218/2318 20010KT P6SM SCT050 BKN100
     FM222300 21006KT P6SM BKN020 OVC050 WS020/26040KT
     FM231000 24006KT 2SM -SN OVC025
     FM231500 25010KT P6SM OVC025=



000
FTUS41 KGYX 221732
TAFCON
TAF
KCON 221732Z 2218/2318 24010KT P6SM SCT100
     FM222300 21006KT P6SM OVC050 WS020/26045KT=



000
FTUS41 KGYX 221732
TAFPSM
TAF
KPSM 221732Z 2218/2318 24011KT P6SM SCT100
     FM230100 21005KT P6SM SCT050 OVC100 WS020/26045KT
     FM231400 25008G15KT P6SM BKN050=



000
FTUS41 KGYX 221732
TAFAUG
TAF
KAUG 221732Z 2218/2318 23008KT P6SM BKN100
     FM222300 21012KT P6SM SCT050 OVC100
     FM231000 22004KT P6SM BKN025=



000
FTUS41 KGYX 221732
TAFPWM
TAF
KPWM 221732Z 2218/2318 23012KT P6SM OVC100
     FM222300 23006KT P6SM SCT050 OVC100 WS020/27040KT
     FM231300 26005KT P6SM SCT050 OVC070=



000
FTUS41 KGYX 221120
TAFLEB
TAF
KLEB 221120Z 2212/2312 VRB03KT P6SM SCT100
     FM221600 20010KT P6SM SCT050 BKN100
     FM222300 21006KT P6SM BKN050=



000
FTUS41 KGYX 221120
TAFAUG
TAF
KAUG 221120Z 2212/2312 28007KT P6SM SCT100
     FM221700 23011G20KT P6SM BKN100
     FM222300 21006KT P6SM SCT050 OVC100=



000
FTUS41 KGYX 221120
TAFPSM
TAF
KPSM 221120Z 2212/2312 28009KT P6SM SCT100
     FM221700 24011G21KT P6SM SCT100
     FM222300 21010KT P6SM SCT050 OVC100=



000
FTUS41 KGYX 221120
TAFPWM
TAF
KPWM 221120Z 2212/2312 24008KT P6SM SCT100
     FM221700 23012G22KT P6SM SCT100
     FM222300 21008KT P6SM SCT050 OVC100=



000
FTUS41 KGYX 221120
TAFCON
TAF
KCON 221120Z 2212/2312 29006KT P6SM SCT100
     FM221700 24010G19KT P6SM SCT100
     FM222300 21006KT P6SM SCT050 OVC100=



000
FTUS41 KGYX 220932 AAB
TAFLEB
TAF AMD
KLEB 220932Z 2210/2306 23005KT P6SM SCT025 SCT100
      TEMPO 2210/2211 BKN025
     FM221600 20010KT P6SM SCT050 BKN100
     FM222300 21006KT P6SM BKN050=



000
FTUS41 KGYX 220919 AAA
TAFPWM
TAF AMD
KPWM 220919Z 2209/2306 24008KT P6SM SCT100
     FM221700 23012G22KT P6SM SCT100
     FM222300 21008KT P6SM SCT050 OVC100=



000
FTUS41 KGYX 220919 AAA
TAFPSM
TAF AMD
KPSM 220919Z 2209/2306 28009KT P6SM SCT100
     FM221700 24011G21KT P6SM SCT100
     FM222300 21010KT P6SM SCT050 OVC100=



000
FTUS41 KGYX 220919 AAA
TAFAUG
TAF AMD
KAUG 220919Z 2209/2306 28007KT P6SM SCT100
     FM221700 23011G20KT P6SM BKN100
     FM222300 21006KT P6SM SCT050 OVC100=



000
FTUS41 KGYX 220919 AAA
TAFCON
TAF AMD
KCON 220919Z 2209/2306 29006KT P6SM SCT100
     FM221700 24010G19KT P6SM SCT100
     FM222300 21006KT P6SM SCT050 OVC100=



000
FTUS41 KGYX 220919 AAA
TAFLEB
TAF AMD
KLEB 220919Z 2209/2306 23005KT P6SM SCT100
     FM221600 20010KT P6SM SCT050 BKN100
     FM222300 21006KT P6SM BKN050=



000
FTUS41 KGYX 220524
TAFPWM
TAF
KPWM 220524Z 2206/2306 24008KT P6SM SCT100
     FM221700 23012G22KT P6SM SCT100
     FM222300 21008KT P6SM SCT050 OVC100=



000
FTUS41 KGYX 220524
TAFAUG
TAF
KAUG 220524Z 2206/2306 28007KT P6SM SCT100
     FM221700 23011G20KT P6SM BKN100
     FM222300 21006KT P6SM SCT050 OVC100=



000
FTUS41 KGYX 220524
TAFLEB
TAF
KLEB 220524Z 2206/2306 23005KT P6SM SCT100
     FM221600 20010KT P6SM SCT050 BKN100
     FM222300 21006KT P6SM BKN050=



000
FTUS41 KGYX 220524
TAFCON
TAF
KCON 220524Z 2206/2306 29006KT P6SM SCT100
     FM221700 24010G19KT P6SM SCT100
     FM222300 21006KT P6SM SCT050 OVC100=



000
FTUS41 KGYX 220524
TAFPSM
TAF
KPSM 220524Z 2206/2306 28009KT P6SM SCT100
     FM221700 24011G21KT P6SM SCT100
     FM222300 21010KT P6SM SCT050 OVC100=



000
FTUS41 KGYX 212320
TAFAUG
TAF
KAUG 212320Z 2200/2224 28008KT P6SM SKC
     FM221700 23011G20KT P6SM BKN250
     FM222300 21006KT P6SM OVC100=



000
FTUS41 KGYX 212320
TAFPSM
TAF
KPSM 212320Z 2200/2224 28010KT P6SM SKC
     FM221700 24011G21KT P6SM BKN250
     FM222300 21010KT P6SM OVC100=



000
FTUS41 KGYX 212320
TAFLEB
TAF
KLEB 212320Z 2200/2224 23005KT P6SM SKC
     FM221600 20010KT P6SM BKN100 BKN250
     FM222300 21006KT P6SM BKN050=



000
FTUS41 KGYX 212320
TAFCON
TAF
KCON 212320Z 2200/2224 29006KT P6SM SKC
     FM221700 24010G19KT P6SM BKN250
     FM222300 21006KT P6SM OVC100=



000
FTUS41 KGYX 212320
TAFPWM
TAF
KPWM 212320Z 2200/2224 27010KT P6SM SKC
     FM221700 23012G22KT P6SM BKN250
     FM222300 21008KT P6SM OVC100=



000
FTUS41 KGYX 211720
TAFCON
TAF
KCON 211720Z 2118/2218 30015G25KT P6SM FEW050
     FM212100 30011KT P6SM SKC
     FM221000 26004KT P6SM SKC=



000
FTUS41 KGYX 211720
TAFAUG
TAF
KAUG 211720Z 2118/2218 31017G24KT P6SM FEW050
     FM220800 VRB04KT P6SM SKC
     FM221400 24008KT P6SM SKC=



000
FTUS41 KGYX 211720
TAFLEB
TAF
KLEB 211720Z 2118/2218 31015G22KT P6SM SCT045
     FM212100 30008KT P6SM SKC
     FM220800 VRB04KT P6SM SCT090=



000
FTUS41 KGYX 211720
TAFPSM
TAF
KPSM 211720Z 2118/2218 29018G28KT P6SM FEW050
     FM212100 30012KT P6SM SKC
     FM221000 26005KT P6SM SKC=



000
FTUS41 KGYX 211720
TAFPWM
TAF
KPWM 211720Z 2118/2218 30017G27KT P6SM FEW050
     FM220000 29008KT P6SM SKC
     FM220800 24005KT P6SM SKC=



    US Dept of Commerce
    National Oceanic and Atmospheric Administration
    National Weather Service
    1325 East West Highway
    Silver Spring, MD 20910
    Page Author: NWS Internet Services Team
Disclaimer
Information Quality
Credits
Glossary
Privacy Policy
Freedom of Information Act (FOIA)
About Us
Career Opportunities